Data for 03/16/2006

Time Sea-Level Adjusted Pressure Absolute Pressure Temperature Relative Humidity Dew Point   
(mb) (inHg) (mb) (inHg) (C) (F) (%) (C) (F)
00:05 1018 30.06 847 25.01 -4.6 23.7 71 -9.2 15.4
00:10 1018 30.06 847 25.01 -4.7 23.6 70 -9.3 15.3
00:15 1018 30.06 847 25.01 -4.8 23.4 71 -9.2 15.4
00:20 1018 30.06 847 25.01 -4.9 23.2 71 -9.4 15.1
00:25 1018 30.06 847 25.01 -5 23 71 -9.4 15
00:30 1018 30.06 847 25.01 -4.9 23.1 71 -9.5 14.9
00:35 1018 30.06 847 25.01 -5 23 71 -9.5 14.9
00:40 1018 30.06 847 25.01 -5 23 71 -9.4 15
00:45 1018 30.06 847 25.01 -5 23 71 -9.5 14.9
00:50 1018 30.06 847 25.01 -4.8 23.4 70 -9.5 14.9
00:55 1018 30.06 847 25.01 -4.7 23.5 69 -9.6 14.8
01:00 1018 30.06 847 25.01 -4.7 23.6 68 -9.6 14.6
01:05 1018 30.06 847 25.01 -4.6 23.7 68 -9.7 14.5
01:10 1018 30.06 847 25.01 -4.9 23.2 68 -9.9 14.2
01:15 1018 30.06 847 25.01 -5.1 22.8 68 -10.1 13.9
01:20 1018 30.06 847 25.01 -5.1 22.8 67 -10.3 13.4
01:25 1018 30.06 847 25.01 -5.1 22.8 67 -10.2 13.6
01:30 1018 30.06 847 25.01 -5.4 22.2 69 -10.3 13.4
01:35 1018 30.06 847 25.01 -5.4 22.2 68 -10.4 13.3
01:40 1018 30.06 847 25.01 -5.4 22.3 68 -10.3 13.4
01:45 1018 30.06 847 25.01 -4.7 23.5 65 -10.3 13.5
01:50 1018 30.06 848 25.04 -4.8 23.4 67 -10 14
01:55 1018 30.06 848 25.04 -5.2 22.7 68 -10.1 13.8
02:00 1018 30.06 848 25.04 -5.6 22 70 -10.1 13.7
02:05 1018 30.06 847 25.01 -5.6 21.9 71 -10.1 13.8
02:10 1018 30.06 847 25.01 -5.6 21.8 72 -10 14
02:15 1018 30.06 847 25.01 -5.8 21.6 72 -10 14
02:20 1018 30.06 847 25.01 -5.9 21.4 73 -10 14
02:25 1018 30.06 848 25.04 -5.8 21.6 72 -10 14
02:30 1018 30.06 848 25.04 -5.6 22 71 -9.9 14.1
02:35 1018 30.06 848 25.04 -5.6 21.9 72 -10 14.1
02:40 1018 30.06 847 25.01 -6 21.2 73 -10 14
02:45 1018 30.06 847 25.01 -5.7 21.8 71 -10.1 13.8
02:50 1018 30.06 847 25.01 -5.6 21.9 71 -10.1 13.8
02:55 1018 30.06 847 25.01 -5.7 21.8 71 -10.1 13.9
03:00 1018 30.06 847 25.01 -5.7 21.8 71 -10.1 13.8
03:05 1018 30.06 847 25.01 -5.5 22 70 -10.2 13.7
03:10 1018 30.06 847 25.01 -5.6 21.9 70 -10.3 13.5
03:15 1018 30.06 847 25.01 -5.8 21.6 71 -10.3 13.5
03:20 1018 30.06 847 25.01 -6 21.2 72 -10.3 13.5
03:25 1018 30.06 847 25.01 -5.8 21.5 70 -10.4 13.2
03:30 1018 30.06 847 25.01 -5.7 21.7 69 -10.5 13.1
03:35 1018 30.06 847 25.01 -5.8 21.6 69 -10.5 13
03:40 1018 30.06 847 25.01 -5.9 21.4 69 -10.6 12.9
03:45 1018 30.06 847 25.01 -6.1 21.1 70 -10.7 12.7
03:50 1018 30.06 847 25.01 -6.3 20.6 71 -10.7 12.7
03:55 1018 30.06 847 25.01 -6.6 20.2 72 -10.8 12.6
04:00 1018 30.06 847 25.01 -6.6 20.1 74 -10.6 13
04:05 1018 30.06 847 25.01 -6.5 20.3 73 -10.7 12.8
04:10 1018 30.06 847 25.01 -6.5 20.4 72 -10.7 12.8
04:15 1018 30.06 847 25.01 -6.7 20 73 -10.8 12.6
04:20 1018 30.06 847 25.01 -6.7 19.9 73 -10.7 12.7
04:25 1018 30.06 847 25.01 -6.6 20.1 72 -10.8 12.5
04:30 1018 30.06 847 25.01 -6.5 20.3 70 -11 12.1
04:35 1018 30.06 847 25.01 -6 21.2 68 -10.9 12.4
04:40 1018 30.06 847 25.01 -5.7 21.8 68 -10.8 12.6
04:45 1018 30.06 847 25.01 -5.7 21.8 67 -10.8 12.5
04:50 1018 30.06 847 25.01 -5.6 21.8 66 -11 12.1
04:55 1018 30.06 847 25.01 -5.5 22.1 65 -11 12.2
05:00 1018 30.06 847 25.01 -5.5 22.1 65 -11 12.1
05:05 1018 30.06 847 25.01 -5.7 21.8 67 -10.9 12.3
05:10 1018 30.06 847 25.01 -5.8 21.5 68 -10.9 12.4
05:15 1018 30.06 847 25.01 -6.1 21 69 -11 12.2
05:20 1018 30.06 847 25.01 -6.2 20.8 70 -10.9 12.4
05:25 1018 30.06 847 25.01 -6.3 20.7 70 -10.9 12.4
05:30 1018 30.06 847 25.01 -6.5 20.4 70 -11 12.2
05:35 1018 30.06 847 25.01 -6.6 20.1 71 -11.1 12.1
05:40 1018 30.06 847 25.01 -6.6 20.1 70 -11.2 11.9
05:45 1018 30.06 847 25.01 -6.5 20.4 70 -11.1 12
05:50 1018 30.06 847 25.01 -6.4 20.4 70 -11.1 12
05:55 1018 30.06 847 25.01 -6.4 20.5 69 -11.1 12
06:00 1018 30.06 847 25.01 -6.5 20.3 69 -11.3 11.7
06:05 1018 30.06 847 25.01 -6.9 19.7 70 -11.4 11.5
06:10 1018 30.06 847 25.01 -6.8 19.8 70 -11.3 11.7
06:15 1018 30.06 847 25.01 -6.6 20.1 70 -11.2 11.8
06:20 1018 30.06 847 25.01 -6.3 20.7 68 -11.2 11.8
06:25 1018 30.06 847 25.01 -6.2 20.8 68 -11.2 11.8
06:30 1018 30.06 847 25.01 -6.3 20.6 69 -11.2 11.8
06:35 1018 30.06 847 25.01 -6.2 20.9 67 -11.2 11.8
06:40 1018 30.06 847 25.01 -5.8 21.7 66 -11.1 11.9
06:45 1018 30.06 847 25.01 -5.8 21.6 66 -11.1 12.1
06:50 1018 30.06 847 25.01 -5.8 21.5 66 -11.1 11.9
06:55 1018 30.06 847 25.01 -5.7 21.7 66 -11.1 12
07:00 1018 30.06 847 25.01 -5.6 22 65 -11.1 12.1
07:05 1018 30.06 847 25.01 -5.3 22.6 64 -11.1 12
07:10 1018 30.06 847 25.01 -5 23.1 63 -10.9 12.3
07:15 1018 30.06 847 25.01 -5.1 22.8 64 -10.9 12.3
07:20 1018 30.06 847 25.01 -5.2 22.6 63 -11.1 12
07:25 1018 30.06 847 25.01 -5.1 22.9 63 -11.1 12.1
07:30 1018 30.06 847 25.01 -4.9 23.1 62 -11.1 12.1
07:35 1018 30.06 847 25.01 -4.6 23.7 62 -10.9 12.3
07:40 1018 30.06 847 25.01 -4.5 23.9 61 -10.9 12.4
07:45 1018 30.06 847 25.01 -4.5 23.9 62 -10.7 12.8
07:50 1018 30.06 847 25.01 -4.5 24 62 -10.8 12.6
07:55 1018 30.06 847 25.01 -4.5 24 62 -10.7 12.7
08:00 1018 30.06 847 25.01 -4.5 23.9 62 -10.6 12.8
08:05 1018 30.06 847 25.01 -4.7 23.6 62 -10.8 12.5
08:10 1018 30.06 847 25.01 -4.6 23.8 62 -10.7 12.7
08:15 1018 30.06 847 25.01 -4.5 24 62 -10.7 12.8
08:20 1018 30.06 847 25.01 -4.3 24.2 61 -10.7 12.7
08:25 1018 30.06 847 25.01 -4.2 24.5 61 -10.6 12.9
08:30 1018 30.06 847 25.01 -4 24.9 61 -10.4 13.3
08:35 1018 30.06 847 25.01 -4 24.8 61 -10.5 13.1
08:40 1018 30.06 847 25.01 -4 24.7 61 -10.4 13.3
08:45 1018 30.06 847 25.01 -4 24.8 61 -10.4 13.3
08:50 1018 30.06 847 25.01 -3.7 25.4 59 -10.5 13.1
08:55 1018 30.06 848 25.04 -3.4 25.8 60 -10.2 13.7
09:00 1018 30.06 848 25.04 -3.3 26 59 -10.3 13.5
09:05 1018 30.06 848 25.04 -3.1 26.5 57 -10.4 13.3
09:10 1018 30.06 848 25.04 -2.8 26.9 57 -10.2 13.7
09:15 1018 30.06 848 25.04 -2.4 27.7 55 -10.2 13.7
09:20 1018 30.06 848 25.04 -2.2 28 55 -10.1 13.8
09:25 1018 30.06 848 25.04 -2 28.4 54 -10 13.9
09:30 1018 30.06 848 25.04 -1.7 28.9 54 -9.9 14.3
09:35 1018 30.06 848 25.04 -1.3 29.6 54 -9.6 14.8
09:40 1018 30.06 848 25.04 -0.9 30.3 52 -9.5 14.9
09:45 1019 30.09 848 25.04 -0.8 30.6 52 -9.3 15.2
09:50 1019 30.09 848 25.04 -0.5 31.2 50 -9.7 14.6
09:55 1019 30.09 848 25.04 -0 31.9 49 -9.4 15
10:00 1018 30.06 848 25.04 0.1 32.3 50 -9 15.7
10:05 1018 30.06 848 25.04 0 32 49 -9.3 15.2
10:10 1018 30.06 848 25.04 0.1 32.2 49 -9.4 15.1
10:15 1018 30.06 848 25.04 0.3 32.5 45 -10.3 13.4
10:20 1018 30.06 848 25.04 0.3 32.6 46 -10 14
10:25 1018 30.06 848 25.04 0.7 33.2 44 -10.2 13.7
10:30 1018 30.06 848 25.04 0.6 33.1 45 -10.1 13.9
10:35 1018 30.06 848 25.04 0.9 33.7 42 -10.7 12.8
10:40 1018 30.06 848 25.04 1.2 34.1 41 -10.6 13
10:45 1018 30.06 848 25.04 1.6 34.9 40 -10.7 12.7
10:50 1018 30.06 847 25.01 2.3 36.1 39 -10.4 13.3
10:55 1018 30.06 847 25.01 2.3 36.2 37 -10.8 12.6
11:00 1018 30.06 848 25.04 2.7 36.9 36 -11 12.2
11:05 1018 30.06 847 25.01 4 39.1 34 -10.5 13.1
11:10 1018 30.06 847 25.01 4.4 39.9 32 -10.9 12.3
11:15 1018 30.06 847 25.01 3.3 37.9 35 -10.8 12.5
11:20 1018 30.06 847 25.01 3.1 37.6 36 -10.4 13.2
11:25 1018 30.06 847 25.01 3.9 39 40 -8.5 16.7
11:30 1018 30.06 847 25.01 3.4 38.1 40 -9 15.7
11:35 1018 30.06 847 25.01 3.3 37.9 41 -8.9 16
11:40 1018 30.06 847 25.01 2.9 37.2 41 -9.2 15.5
11:45 1018 30.06 847 25.01 3.1 37.7 39 -9.4 15.1
11:50 1018 30.06 847 25.01 4.2 39.5 36 -9.6 14.7
11:55 1018 30.06 847 25.01 5 41 36 -9 15.9
12:00 1018 30.06 847 25.01 4.7 40.4 40 -7.9 17.8
12:05 1018 30.06 847 25.01 5.5 41.9 35 -8.8 16.2
12:10 1018 30.06 847 25.01 6.1 42.9 33 -8.9 15.9
12:15 1018 30.06 847 25.01 5.9 42.7 35 -8.5 16.8
12:20 1018 30.06 847 25.01 5.9 42.6 33 -9.1 15.6
12:25 1018 30.06 847 25.01 5.7 42.2 35 -8.6 16.5
12:30 1018 30.06 847 25.01 6 42.8 34 -8.7 16.3
12:35 1018 30.06 847 25.01 6.2 43.2 33 -8.9 16
12:40 1018 30.06 847 25.01 6.6 43.8 32 -9.2 15.5
12:45 1018 30.06 847 25.01 6.4 43.5 33 -8.7 16.3
12:50 1018 30.06 847 25.01 6.1 42.9 33 -8.8 16.1
12:55 1018 30.06 847 25.01 6.1 43 32 -9.5 14.8
13:00 1017 30.03 847 25.01 6 42.8 34 -8.8 16.1
13:05 1017 30.03 847 25.01 6.1 43 34 -8.8 16.2
13:10 1017 30.03 846 24.98 6 42.8 35 -8.5 16.7
13:15 1017 30.03 846 24.98 5.3 41.6 35 -8.9 16
13:20 1017 30.03 846 24.98 4.7 40.5 38 -8.5 16.7
13:25 1017 30.03 846 24.98 5.1 41.1 37 -8.5 16.6
13:30 1017 30.03 846 24.98 5.9 42.6 34 -8.9 16
13:35 1017 30.03 846 24.98 5.2 41.3 39 -7.8 18
13:40 1017 30.03 846 24.98 5.9 42.7 37 -7.5 18.4
13:45 1017 30.03 846 24.98 6.9 44.4 33 -8.2 17.3
13:50 1017 30.03 846 24.98 7 44.5 33 -8 17.5
13:55 1016 30 846 24.98 5.7 42.2 35 -8.6 16.6
14:00 1016 30 846 24.98 5.3 41.5 37 -8.4 16.8
14:05 1016 30 846 24.98 4.9 40.9 35 -9.3 15.3
14:10 1016 30 846 24.98 5 40.9 39 -7.9 17.7
14:15 1016 30 846 24.98 5.3 41.5 38 -7.9 17.8
14:20 1016 30 846 24.98 5.1 41.2 37 -8.4 16.8
14:25 1016 30 846 24.98 5.5 41.8 38 -7.7 18.1
14:30 1016 30 846 24.98 5.7 42.3 36 -8.2 17.2
14:35 1016 30 846 24.98 5.6 42.1 37 -7.9 17.8
14:40 1016 30 846 24.98 5 41.1 39 -7.7 18.1
14:45 1016 30 845 24.95 5.2 41.3 40 -7.4 18.6
14:50 1016 30 845 24.95 4.7 40.5 41 -7.5 18.5
14:55 1016 30 845 24.95 4.7 40.5 42 -7.3 18.9
15:00 1016 30 845 24.95 4.9 40.8 40 -7.5 18.5
15:05 1016 30 845 24.95 4.6 40.3 41 -7.4 18.6
15:10 1016 30 845 24.95 4.5 40.1 41 -7.5 18.5
15:15 1016 30 845 24.95 4.4 40 42 -7.4 18.6
15:20 1016 30 845 24.95 4.6 40.2 41 -7.5 18.4
15:25 1016 30 845 24.95 4.7 40.5 42 -7.1 19.2
15:30 1016 30 845 24.95 5.1 41.3 40 -7.3 18.8
15:35 1016 30 845 24.95 5 41 40 -7.4 18.7
15:40 1016 30 845 24.95 5.2 41.4 42 -6.6 20.1
15:45 1016 30 845 24.95 5.8 42.4 41 -6.3 20.6
15:50 1016 30 845 24.95 5.4 41.7 41 -6.9 19.7
15:55 1016 30 845 24.95 4.8 40.7 41 -7.4 18.6
16:00 1016 30 845 24.95 5.4 41.8 39 -7.5 18.5
16:05 1016 30 845 24.95 5.5 41.8 38 -7.7 18.2
16:10 1016 30 845 24.95 5.3 41.6 38 -7.8 17.9
16:15 1016 30 845 24.95 4.9 40.8 39 -8 17.6
16:20 1016 30 845 24.95 4.9 40.8 38 -8.1 17.4
16:25 1016 30 845 24.95 4.9 40.7 39 -7.9 17.8
16:30 1016 30 845 24.95 5 41.1 37 -8.4 16.9
16:35 1016 30 845 24.95 5.1 41.3 39 -7.8 18
16:40 1016 30 845 24.95 5.2 41.3 37 -8.4 17
16:45 1016 30 845 24.95 5 41 37 -8.6 16.5
16:50 1016 30 845 24.95 5.2 41.3 36 -8.7 16.4
16:55 1016 30 845 24.95 5.3 41.6 35 -9 15.9
17:00 1016 30 845 24.95 5.3 41.5 35 -8.8 16.1
17:05 1016 30 845 24.95 5.3 41.5 39 -7.7 18.2
17:10 1016 30 845 24.95 4.8 40.6 41 -7.4 18.6
17:15 1016 30 845 24.95 4.4 39.9 42 -7.5 18.4
17:20 1016 30 845 24.95 4.3 39.7 41 -7.7 18.1
17:25 1016 30 845 24.95 4.5 40.2 37 -8.8 16.2
17:30 1016 30 845 24.95 4.9 40.7 39 -8.1 17.5
17:35 1016 30 845 24.95 4.8 40.7 42 -6.9 19.6
17:40 1016 30 845 24.95 4.8 40.6 40 -7.6 18.2
17:45 1016 30 845 24.95 5 41 37 -8.4 16.8
17:50 1016 30 845 24.95 5 41 41 -7.3 18.9
17:55 1016 30 845 24.95 4.7 40.5 39 -8.3 17.1
18:00 1016 30 845 24.95 4.6 40.3 41 -7.4 18.6
18:05 1016 30 845 24.95 4.1 39.3 42 -7.8 18
18:10 1016 30 845 24.95 3.9 39.1 42 -7.9 17.8
18:15 1016 30 845 24.95 4 39.2 42 -7.9 17.8
18:20 1016 30 845 24.95 3.9 39 40 -8.4 16.9
18:25 1016 30 845 24.95 3.7 38.6 42 -8.2 17.3
18:30 1016 30 845 24.95 3.6 38.5 41 -8.6 16.6
18:35 1016 30 845 24.95 3.7 38.7 42 -8.1 17.5
18:40 1016 30 845 24.95 3.5 38.3 42 -8.4 16.9
18:45 1016 30 845 24.95 3.5 38.3 41 -8.5 16.6
18:50 1016 30 845 24.95 3.4 38 44 -7.8 17.9
18:55 1016 30 845 24.95 2.8 37 45 -7.9 17.7
19:00 1016 30 845 24.95 2.7 36.8 47 -7.6 18.4
19:05 1016 30 845 24.95 2.5 36.5 49 -7.2 19.1
19:10 1016 30 845 24.95 2.2 36 50 -7.1 19.1
19:15 1016 30 845 24.95 2.1 35.8 51 -7.1 19.3
19:20 1016 30 845 24.95 2.6 36.7 47 -7.7 18.1
19:25 1016 30 845 24.95 2.8 37 47 -7.5 18.4
19:30 1016 30 845 24.95 2.7 36.9 47 -7.6 18.4
19:35 1016 30 845 24.95 3 37.5 46 -7.5 18.6
19:40 1016 30 845 24.95 3 37.4 46 -7.6 18.4
19:45 1016 30 845 24.95 2.8 37 48 -7.2 19
19:50 1016 30 845 24.95 1.6 34.8 54 -6.7 20
19:55 1016 30 845 24.95 0.6 33.1 57 -7 19.5
20:00 1016 30 845 24.95 0.3 32.6 57 -7.1 19.2
20:05 1016 30 845 24.95 0.8 33.5 54 -7.4 18.8
20:10 1016 30 845 24.95 1 33.8 54 -7.4 18.8
20:15 1016 30 845 24.95 0.9 33.7 55 -7.2 19
20:20 1016 30 845 24.95 0.9 33.5 54 -7.4 18.7
20:25 1016 30 845 24.95 0.9 33.7 54 -7.3 18.9
20:30 1016 30 845 24.95 0.6 33.1 55 -7.3 18.8
20:35 1016 30 845 24.95 0.4 32.8 56 -7.4 18.7
20:40 1016 30 845 24.95 0.4 32.7 56 -7.3 18.8
20:45 1016 30 845 24.95 0.6 33 54 -7.7 18.2
20:50 1016 30 845 24.95 0.8 33.5 53 -7.6 18.3
20:55 1016 30 845 24.95 0.8 33.4 53 -7.8 18
21:00 1016 30 845 24.95 0.8 33.4 53 -7.7 18.2
21:05 1016 30 845 24.95 0.6 33.1 54 -7.7 18.2
21:10 1016 30 845 24.95 0.6 33.2 54 -7.7 18.2
21:15 1016 30 845 24.95 0.7 33.2 54 -7.7 18.2
21:20 1016 30 845 24.95 0.5 32.8 54 -7.7 18.2
21:25 1016 30 845 24.95 0.4 32.7 55 -7.7 18.1
21:30 1016 30 846 24.98 0.4 32.7 54 -7.8 18
21:35 1016 30 846 24.98 0.4 32.7 54 -7.8 17.9
21:40 1016 30 846 24.98 0.3 32.5 55 -7.7 18.2
21:45 1016 30 846 24.98 0.1 32.2 56 -7.7 18.1
21:50 1016 30 846 24.98 0 32 56 -7.8 17.9
21:55 1016 30 846 24.98 0.1 32.1 55 -7.9 17.7
22:00 1016 30 846 24.98 0.2 32.3 55 -7.9 17.8
22:05 1016 30 846 24.98 0.1 32.2 55 -7.9 17.8
22:10 1016 30 846 24.98 0.1 32.2 55 -7.9 17.8
22:15 1016 30 846 24.98 -0 31.9 56 -7.8 17.9
22:20 1016 30 846 24.98 -0.1 31.7 56 -7.9 17.8
22:25 1017 30.03 846 24.98 -0.2 31.6 56 -8 17.6
22:30 1017 30.03 846 24.98 -0.3 31.5 56 -8 17.6
22:35 1017 30.03 846 24.98 -0.2 31.7 56 -8 17.7
22:40 1017 30.03 846 24.98 -0.1 31.9 55 -8.1 17.4
22:45 1016 30 846 24.98 -0.2 31.7 55 -8.1 17.4
22:50 1016 30 846 24.98 -0.5 31.1 56 -8.1 17.4
22:55 1016 30 846 24.98 -0.7 30.8 56 -8.4 16.9
23:00 1016 30 846 24.98 -0.7 30.8 57 -8.2 17.2
23:05 1017 30.03 846 24.98 -0.6 30.9 56 -8.3 17
23:10 1017 30.03 846 24.98 -0.5 31 56 -8.3 17.1
23:15 1016 30 846 24.98 -0.6 30.9 56 -8.3 17
23:20 1016 30 846 24.98 -0.9 30.3 57 -8.4 16.9
23:25 1016 30 846 24.98 -1 30.3 56 -8.6 16.5
23:30 1016 30 846 24.98 -1 30.2 56 -8.6 16.4
23:35 1016 30 846 24.98 -1.1 30 57 -8.6 16.5
23:40 1016 30 846 24.98 -1.2 29.8 57 -8.7 16.4
23:45 1016 30 846 24.98 -1.3 29.6 58 -8.5 16.8
23:50 1016 30 846 24.98 -1.8 28.8 60 -8.6 16.6
23:55 1016 30 846 24.98 -2 28.4 61 -8.6 16.5
24:00 1016 30 845 24.95 -2 28.4 60 -8.7 16.3